createdAt,value
2019-05-20T00:00:27.926Z,99.99
2019-05-20T00:01:27.918Z,99.72
2019-05-20T00:02:28.628Z,99.91
2019-05-20T00:03:27.927Z,99.81
2019-05-20T00:04:27.901Z,99.77
2019-05-20T00:05:27.905Z,99.81
2019-05-20T00:06:27.895Z,99.91
2019-05-20T00:07:27.885Z,99.81
2019-05-20T00:08:27.876Z,99.52
2019-05-20T00:09:27.885Z,99.99
2019-05-20T00:10:27.862Z,99.99
2019-05-20T00:11:27.863Z,99.99
2019-05-20T00:12:27.849Z,99.72
2019-05-20T00:13:27.849Z,99.99
2019-05-20T00:14:27.839Z,99.99
2019-05-20T00:15:27.843Z,99.99
2019-05-20T00:16:27.842Z,99.91
2019-05-20T00:17:30.639Z,99.99
2019-05-20T00:18:27.822Z,99.99
2019-05-20T00:19:27.812Z,99.99
2019-05-20T00:20:27.805Z,99.43
2019-05-20T00:21:27.801Z,99.99
2019-05-20T00:22:27.801Z,99.81
2019-05-20T00:23:27.785Z,99.91
2019-05-20T00:24:28.636Z,99.52
2019-05-20T00:25:27.779Z,99.99
2019-05-20T00:26:27.773Z,99.99
2019-05-20T00:27:27.763Z,99.99
2019-05-20T00:28:27.755Z,99.99
2019-05-20T00:29:27.755Z,99.91
2019-05-20T00:30:28.636Z,99.99
2019-05-20T00:31:27.740Z,99.99
2019-05-20T00:32:40.262Z,99.81
2019-05-20T00:33:27.730Z,99.99
2019-05-20T00:34:35.370Z,99.81
2019-05-20T00:35:27.718Z,99.81
2019-05-20T00:36:27.712Z,99.72
2019-05-20T00:37:27.707Z,99.99
2019-05-20T00:38:27.704Z,99.72
2019-05-20T00:39:27.695Z,99.48
2019-05-20T00:40:28.640Z,99.81
2019-05-20T00:41:27.685Z,99.62
2019-05-20T00:42:27.691Z,99.99
2019-05-20T00:43:27.690Z,99.99
2019-05-20T00:44:27.667Z,99.99
2019-05-20T00:45:27.656Z,99.67
2019-05-20T00:46:27.656Z,99.52
2019-05-20T00:47:27.651Z,99.99
2019-05-20T00:48:27.648Z,99.91
2019-05-20T00:49:27.636Z,99.72
2019-05-20T00:50:27.633Z,99.62
2019-05-20T00:51:27.622Z,99.57
2019-05-20T00:52:27.616Z,99.62
2019-05-20T00:53:27.622Z,99.38
2019-05-20T00:54:27.608Z,99.48
2019-05-20T00:55:27.599Z,99.19
2019-05-20T00:56:27.598Z,99.96
2019-05-20T00:57:27.595Z,99.38
2019-05-20T00:58:28.150Z,99.76
2019-05-20T00:59:27.575Z,99.96
2019-05-20T01:00:27.571Z,99.67
2019-05-20T01:01:27.568Z,99.96
2019-05-20T01:02:27.565Z,98.52
2019-05-20T01:03:27.557Z,99.96
2019-05-20T01:04:27.557Z,99.57
2019-05-20T01:05:27.535Z,98.71
2019-05-20T01:06:27.535Z,99.67
2019-05-20T01:07:27.525Z,99.19
2019-05-20T01:08:28.156Z,99.38
2019-05-20T01:09:27.518Z,98.52
2019-05-20T01:10:27.509Z,99.29
2019-05-20T01:11:30.157Z,99.38
2019-05-20T01:12:27.500Z,99.57
2019-05-20T01:13:27.490Z,99.00
2019-05-20T01:14:27.486Z,99.10
2019-05-20T01:15:27.483Z,99.29
2019-05-20T01:16:27.474Z,99.19
2019-05-20T01:17:27.474Z,99.00
2019-05-20T01:18:27.461Z,99.29
2019-05-20T01:19:27.458Z,99.10
2019-05-20T01:20:27.461Z,99.96
2019-05-20T01:21:27.445Z,99.19
2019-05-20T01:22:27.435Z,99.19
2019-05-20T01:23:27.426Z,99.57
2019-05-20T01:24:27.426Z,99.00
2019-05-20T01:25:27.416Z,98.90
2019-05-20T01:26:27.408Z,98.71
2019-05-20T01:27:27.405Z,99.00
2019-05-20T01:28:27.400Z,98.71
2019-05-20T01:29:27.393Z,99.00
2019-05-20T01:30:27.388Z,99.29
2019-05-20T01:31:27.386Z,99.48
2019-05-20T01:32:27.372Z,99.00
2019-05-20T01:33:27.369Z,99.76
2019-05-20T01:34:27.364Z,99.19
2019-05-20T01:35:27.356Z,99.29
2019-05-20T01:36:34.195Z,99.24
2019-05-20T01:37:27.341Z,99.14
2019-05-20T01:38:27.333Z,99.86
2019-05-20T01:39:27.350Z,99.99
2019-05-20T01:40:27.326Z,99.52
2019-05-20T01:41:27.318Z,99.24
2019-05-20T01:42:27.310Z,99.43
2019-05-20T01:43:27.303Z,99.33
2019-05-20T01:44:27.305Z,98.95
2019-05-20T01:45:27.290Z,98.85
2019-05-20T01:46:27.289Z,98.85
2019-05-20T01:47:27.276Z,99.14
2019-05-20T01:48:29.198Z,99.04
2019-05-20T01:49:27.270Z,98.47
2019-05-20T01:50:27.264Z,98.47
2019-05-20T01:51:27.253Z,98.57
2019-05-20T01:52:28.177Z,99.14
2019-05-20T01:53:27.245Z,99.43
2019-05-20T01:54:27.235Z,98.95
2019-05-20T01:55:27.229Z,98.95
2019-05-20T01:56:27.223Z,98.75
2019-05-20T01:57:27.225Z,99.14
2019-05-20T01:58:27.217Z,99.04
2019-05-20T01:59:27.244Z,99.04
2019-05-20T02:00:27.201Z,99.14
2019-05-20T02:01:27.194Z,98.75
2019-05-20T02:02:27.190Z,98.28
2019-05-20T02:03:31.825Z,98.47
2019-05-20T02:04:27.179Z,98.57
2019-05-20T02:05:27.686Z,98.57
2019-05-20T02:06:27.162Z,98.38
2019-05-20T02:07:27.153Z,97.80
2019-05-20T02:08:27.159Z,97.90
2019-05-20T02:09:27.149Z,98.95
2019-05-20T02:10:27.138Z,98.09
2019-05-20T02:11:27.132Z,98.09
2019-05-20T02:12:27.124Z,98.09
2019-05-20T02:13:27.116Z,98.09
2019-05-20T02:14:27.108Z,98.38
2019-05-20T02:15:27.115Z,97.61
2019-05-20T02:16:27.103Z,97.80
2019-05-20T02:17:27.089Z,97.61
2019-05-20T02:18:27.083Z,97.90
2019-05-20T02:19:27.080Z,97.61
2019-05-20T02:20:27.074Z,97.61
2019-05-20T02:21:27.073Z,97.80
2019-05-20T02:22:27.056Z,98.38
2019-05-20T02:23:27.052Z,97.90
2019-05-20T02:24:27.052Z,97.85
2019-05-20T02:25:27.044Z,97.71
2019-05-20T02:26:27.039Z,98.18
2019-05-20T02:27:27.022Z,98.66
2019-05-20T02:28:27.025Z,98.71
2019-05-20T02:29:27.014Z,97.94
2019-05-20T02:30:27.011Z,98.71
2019-05-20T02:31:26.999Z,97.75
2019-05-20T02:32:26.993Z,97.61
2019-05-20T02:33:27.005Z,96.84
2019-05-20T02:34:27.702Z,97.75
2019-05-20T02:35:26.987Z,98.90
2019-05-20T02:36:26.974Z,96.84
2019-05-20T02:37:26.960Z,97.08
2019-05-20T02:38:27.704Z,97.08
2019-05-20T02:39:27.132Z,97.08
2019-05-20T02:40:26.943Z,96.94
2019-05-20T02:41:26.937Z,97.66
2019-05-20T02:42:26.929Z,98.71
2019-05-20T02:43:27.708Z,97.47
2019-05-20T02:44:26.919Z,96.89
2019-05-20T02:45:26.910Z,98.13
2019-05-20T02:46:28.713Z,96.89
2019-05-20T02:47:26.899Z,96.61
2019-05-20T02:48:26.895Z,96.80
2019-05-20T02:49:26.888Z,96.42
2019-05-20T02:50:26.885Z,96.22
2019-05-20T02:51:26.870Z,96.22
2019-05-20T02:52:26.867Z,96.32
2019-05-20T02:53:26.856Z,96.51
2019-05-20T02:54:26.854Z,96.22
2019-05-20T02:55:26.861Z,96.51
2019-05-20T02:56:26.850Z,96.51
2019-05-20T02:57:26.827Z,95.94
2019-05-20T02:58:27.710Z,96.61
2019-05-20T02:59:26.819Z,96.80
2019-05-20T03:00:26.815Z,96.61
2019-05-20T03:01:26.808Z,96.89
2019-05-20T03:02:26.806Z,96.99
2019-05-20T03:03:26.789Z,96.70
2019-05-20T03:04:26.791Z,98.13
2019-05-20T03:05:26.781Z,97.28
2019-05-20T03:06:26.781Z,96.32
2019-05-20T03:07:26.767Z,97.08
2019-05-20T03:08:26.763Z,97.56
2019-05-20T03:09:26.750Z,98.23
2019-05-20T03:10:26.748Z,97.56
2019-05-20T03:11:26.737Z,96.99
2019-05-20T03:12:26.730Z,97.37
2019-05-20T03:13:26.730Z,97.28
2019-05-20T03:14:26.733Z,97.66
2019-05-20T03:15:26.718Z,97.94
2019-05-20T03:16:26.703Z,96.51
2019-05-20T03:17:26.701Z,96.89
2019-05-20T03:18:26.687Z,97.28
2019-05-20T03:19:26.690Z,96.89
2019-05-20T03:20:26.686Z,96.61
2019-05-20T03:21:26.674Z,97.18
2019-05-20T03:22:26.670Z,96.99
2019-05-20T03:23:26.663Z,96.42
2019-05-20T03:24:26.654Z,96.42
2019-05-20T03:25:26.648Z,96.89
2019-05-20T03:26:26.646Z,97.08
2019-05-20T03:27:26.638Z,96.99
2019-05-20T03:28:26.632Z,97.18
2019-05-20T03:29:26.632Z,97.08
2019-05-20T03:30:26.631Z,97.18
2019-05-20T03:31:26.611Z,97.37
2019-05-20T03:32:26.725Z,96.89
2019-05-20T03:33:26.611Z,97.18
2019-05-20T03:34:45.676Z,97.37
2019-05-20T03:35:26.579Z,97.08
2019-05-20T03:36:26.579Z,97.47
2019-05-20T03:37:26.571Z,97.47
2019-05-20T03:38:26.563Z,97.37
2019-05-20T03:39:26.560Z,97.56
2019-05-20T03:40:26.552Z,96.42
2019-05-20T03:41:26.550Z,96.13
2019-05-20T03:42:26.550Z,96.51
2019-05-20T03:43:26.529Z,98.33
2019-05-20T03:44:26.525Z,96.51
2019-05-20T03:45:26.518Z,95.94
2019-05-20T03:46:26.513Z,96.22
2019-05-20T03:47:26.504Z,95.65
2019-05-20T03:48:27.328Z,95.65
2019-05-20T03:49:26.490Z,95.56
2019-05-20T03:50:26.485Z,95.65
2019-05-20T03:51:26.480Z,95.94
2019-05-20T03:52:26.498Z,95.46
2019-05-20T03:53:26.463Z,95.36
2019-05-20T03:54:26.466Z,94.89
2019-05-20T03:55:26.451Z,94.70
2019-05-20T03:56:26.441Z,94.79
2019-05-20T03:57:26.443Z,94.51
2019-05-20T03:58:26.425Z,95.36
2019-05-20T03:59:26.425Z,94.60
2019-05-20T04:00:26.418Z,94.41
2019-05-20T04:01:26.408Z,94.22
2019-05-20T04:02:26.406Z,94.89
2019-05-20T04:03:26.425Z,94.89
2019-05-20T04:04:26.390Z,95.27
2019-05-20T04:05:26.385Z,94.89
2019-05-20T04:06:26.378Z,95.84
2019-05-20T04:07:26.373Z,95.36
2019-05-20T04:08:26.362Z,94.89
2019-05-20T04:09:26.359Z,94.89
2019-05-20T04:10:26.348Z,95.56
2019-05-20T04:11:26.346Z,96.13
2019-05-20T04:12:26.331Z,95.65
2019-05-20T04:13:26.331Z,95.17
2019-05-20T04:14:26.318Z,95.94
2019-05-20T04:15:26.313Z,95.17
2019-05-20T04:16:26.304Z,94.89
2019-05-20T04:17:26.296Z,94.89
2019-05-20T04:18:26.294Z,95.17
2019-05-20T04:19:26.294Z,96.13
2019-05-20T04:20:26.272Z,94.89
2019-05-20T04:21:26.276Z,95.56
2019-05-20T04:22:26.268Z,94.89
2019-05-20T04:23:26.257Z,95.84
2019-05-20T04:24:26.261Z,94.70
2019-05-20T04:25:26.247Z,94.31
2019-05-20T04:26:26.236Z,94.79
2019-05-20T04:27:26.246Z,93.65
2019-05-20T04:28:26.227Z,94.02
2019-05-20T04:29:26.215Z,92.59
2019-05-20T04:30:26.761Z,93.07
2019-05-20T04:31:26.201Z,92.59
2019-05-20T04:32:26.201Z,92.69
2019-05-20T04:33:26.200Z,91.93
2019-05-20T04:34:26.188Z,92.11
2019-05-20T04:35:26.182Z,92.69
2019-05-20T04:36:26.172Z,93.55
2019-05-20T04:37:26.160Z,92.50
2019-05-20T04:38:26.159Z,92.50
2019-05-20T04:39:26.151Z,92.21
2019-05-20T04:40:26.148Z,92.40
2019-05-20T04:41:26.138Z,92.59
2019-05-20T04:42:26.139Z,92.40
2019-05-20T04:43:26.124Z,93.65
2019-05-20T04:44:26.117Z,92.50
2019-05-20T04:45:26.767Z,92.79
2019-05-20T04:46:26.105Z,92.21
2019-05-20T04:47:26.095Z,92.11
2019-05-20T04:48:26.090Z,92.21
2019-05-20T04:49:26.081Z,92.30
2019-05-20T04:50:26.082Z,91.83
2019-05-20T04:51:26.068Z,91.93
2019-05-20T04:52:26.062Z,91.25
2019-05-20T04:53:26.057Z,91.83
2019-05-20T04:54:26.048Z,92.21
2019-05-20T04:55:26.049Z,91.83
2019-05-20T04:56:29.205Z,92.02
2019-05-20T04:57:26.028Z,91.54
2019-05-20T04:58:26.017Z,91.16
2019-05-20T04:59:26.016Z,91.25
2019-05-20T05:00:26.008Z,91.54
2019-05-20T05:01:25.999Z,91.25
2019-05-20T05:02:25.992Z,90.88
2019-05-20T05:03:25.998Z,90.39
2019-05-20T05:04:25.997Z,90.01
2019-05-20T05:05:37.247Z,90.20
2019-05-20T05:06:25.973Z,90.39
2019-05-20T05:07:25.961Z,90.39
2019-05-20T05:08:25.957Z,90.01
2019-05-20T05:09:25.949Z,89.92
2019-05-20T05:10:25.942Z,90.88
2019-05-20T05:11:25.937Z,91.59
2019-05-20T05:12:25.923Z,91.02
2019-05-20T05:13:25.919Z,91.20
2019-05-20T05:14:25.911Z,90.92
2019-05-20T05:15:25.909Z,90.92
2019-05-20T05:16:25.901Z,91.11
2019-05-20T05:17:25.895Z,90.92
2019-05-20T05:18:25.893Z,91.78
2019-05-20T05:19:25.892Z,91.30
2019-05-20T05:20:25.876Z,91.49
2019-05-20T05:21:26.780Z,91.11
2019-05-20T05:22:25.861Z,90.34
2019-05-20T05:23:25.856Z,90.34
2019-05-20T05:24:25.847Z,90.82
2019-05-20T05:25:25.845Z,91.88
2019-05-20T05:26:25.843Z,91.59
2019-05-20T05:27:25.827Z,92.25
2019-05-20T05:28:25.825Z,92.07
2019-05-20T05:29:25.821Z,92.54
2019-05-20T05:30:25.817Z,92.93
2019-05-20T05:31:25.805Z,92.54
2019-05-20T05:32:25.797Z,92.64
2019-05-20T05:33:25.793Z,92.74
2019-05-20T05:34:25.790Z,92.25
2019-05-20T05:35:25.777Z,92.83
2019-05-20T05:36:25.775Z,92.88
2019-05-20T05:37:25.768Z,92.30
2019-05-20T05:38:25.766Z,92.30
2019-05-20T05:39:25.753Z,93.64
2019-05-20T05:40:25.755Z,93.64
2019-05-20T05:41:25.743Z,93.45
2019-05-20T05:42:25.742Z,92.30
2019-05-20T05:43:25.731Z,92.11
2019-05-20T05:44:25.725Z,91.73
2019-05-20T05:45:28.611Z,91.06
2019-05-20T05:46:25.711Z,91.35
2019-05-20T05:47:25.707Z,90.96
2019-05-20T05:48:25.702Z,90.39
2019-05-20T05:49:25.693Z,91.44
2019-05-20T05:50:25.702Z,90.67
2019-05-20T05:51:25.682Z,90.01
2019-05-20T05:52:25.677Z,90.01
2019-05-20T05:53:25.673Z,89.43
2019-05-20T05:54:25.659Z,89.62
2019-05-20T05:55:25.662Z,89.05
2019-05-20T05:56:25.652Z,90.10
2019-05-20T05:57:25.643Z,90.48
2019-05-20T05:58:25.650Z,90.87
2019-05-20T05:59:25.639Z,91.06
2019-05-20T06:00:25.628Z,90.96
2019-05-20T06:01:25.625Z,91.16
2019-05-20T06:02:25.615Z,90.20
2019-05-20T06:03:25.608Z,89.34
2019-05-20T06:04:25.608Z,90.39
2019-05-20T06:05:25.598Z,89.62
2019-05-20T06:06:25.595Z,90.01
2019-05-20T06:07:25.582Z,90.30
2019-05-20T06:08:25.578Z,89.34
2019-05-20T06:09:25.567Z,89.62
2019-05-20T06:10:25.568Z,89.43
2019-05-20T06:11:25.562Z,90.20
2019-05-20T06:12:25.558Z,89.34
2019-05-20T06:13:25.548Z,89.34
2019-05-20T06:14:25.540Z,90.39
2019-05-20T06:15:25.542Z,90.48
2019-05-20T06:16:36.085Z,90.39
2019-05-20T06:17:25.527Z,90.39
2019-05-20T06:18:25.519Z,90.58
2019-05-20T06:19:25.515Z,90.39
2019-05-20T06:20:25.514Z,89.91
2019-05-20T06:21:25.505Z,90.10
2019-05-20T06:22:25.500Z,89.15
2019-05-20T06:23:25.490Z,91.20
2019-05-20T06:24:25.498Z,90.82
2019-05-20T06:25:25.483Z,91.30
2019-05-20T06:26:25.532Z,91.53
2019-05-20T06:27:25.465Z,91.01
2019-05-20T06:28:25.463Z,90.63
2019-05-20T06:29:25.455Z,90.77
2019-05-20T06:30:25.447Z,90.01
2019-05-20T06:31:25.439Z,90.44
2019-05-20T06:32:25.438Z,90.72
2019-05-20T06:33:25.434Z,90.39
2019-05-20T06:34:25.503Z,89.29
2019-05-20T06:35:25.417Z,88.95
2019-05-20T06:36:27.154Z,88.29
2019-05-20T06:37:25.407Z,88.81
2019-05-20T06:38:25.405Z,88.04
2019-05-20T06:39:25.397Z,87.43
2019-05-20T06:40:25.399Z,88.76
2019-05-20T06:41:25.390Z,88.95
2019-05-20T06:42:25.374Z,89.76
2019-05-20T06:43:25.370Z,89.38
2019-05-20T06:44:25.361Z,90.34
2019-05-20T06:45:25.367Z,90.48
2019-05-20T06:46:25.355Z,90.05
2019-05-20T06:47:25.351Z,90.34
2019-05-20T06:48:25.362Z,90.05
2019-05-20T06:49:25.333Z,90.15
2019-05-20T06:50:28.830Z,90.44
2019-05-20T06:51:25.317Z,90.53
2019-05-20T06:52:35.379Z,90.05
2019-05-20T06:53:25.315Z,90.15
2019-05-20T06:54:25.307Z,90.44
2019-05-20T06:55:25.303Z,90.15
2019-05-20T06:56:25.298Z,90.53
2019-05-20T06:57:25.289Z,90.72
2019-05-20T06:58:25.281Z,91.58
2019-05-20T06:59:25.282Z,90.91
2019-05-20T07:00:25.287Z,91.87
2019-05-20T07:01:25.273Z,92.16
2019-05-20T07:02:25.283Z,92.73
2019-05-20T07:03:25.257Z,92.92
2019-05-20T07:04:25.247Z,92.73
2019-05-20T07:05:25.250Z,92.54
2019-05-20T07:06:25.237Z,93.30
2019-05-20T07:07:25.254Z,93.69
2019-05-20T07:08:25.232Z,93.69
2019-05-20T07:09:25.223Z,93.98
2019-05-20T07:10:25.217Z,93.59
2019-05-20T07:11:25.211Z,93.59
2019-05-20T07:12:40.165Z,94.07
2019-05-20T07:13:25.200Z,93.59
2019-05-20T07:14:25.196Z,93.50
2019-05-20T07:15:25.187Z,93.30
2019-05-20T07:16:25.187Z,93.50
2019-05-20T07:17:25.177Z,94.07
2019-05-20T07:18:27.408Z,94.17
2019-05-20T07:19:25.172Z,94.26
2019-05-20T07:20:25.161Z,94.45
2019-05-20T07:21:25.153Z,94.65
2019-05-20T07:22:25.153Z,94.93
2019-05-20T07:23:25.142Z,94.55
2019-05-20T07:24:25.143Z,94.93
2019-05-20T07:25:25.139Z,95.17
2019-05-20T07:26:25.122Z,95.51
2019-05-20T07:27:25.190Z,94.55
2019-05-20T07:28:25.116Z,94.84
2019-05-20T07:29:25.111Z,94.45
2019-05-20T07:30:25.106Z,94.60
2019-05-20T07:31:25.097Z,95.12
2019-05-20T07:32:25.094Z,94.89
2019-05-20T07:33:25.091Z,94.98
2019-05-20T07:34:25.080Z,94.79
2019-05-20T07:35:30.176Z,94.98
2019-05-20T07:36:25.068Z,95.56
2019-05-20T07:37:25.077Z,95.65
2019-05-20T07:38:25.056Z,95.75
2019-05-20T07:39:25.054Z,96.22
2019-05-20T07:40:25.048Z,96.32
2019-05-20T07:41:25.042Z,96.32
2019-05-20T07:42:25.042Z,96.22
2019-05-20T07:43:25.033Z,96.13
2019-05-20T07:44:25.027Z,96.32
2019-05-20T07:45:25.023Z,96.51
2019-05-20T07:46:25.014Z,96.99
2019-05-20T07:47:25.011Z,97.38
2019-05-20T07:48:25.033Z,97.09
2019-05-20T07:49:25.010Z,97.47
2019-05-20T07:50:24.992Z,97.18
2019-05-20T07:51:24.987Z,97.66
2019-05-20T07:52:24.984Z,97.28
2019-05-20T07:53:24.978Z,97.56
2019-05-20T07:54:24.987Z,97.66
2019-05-20T07:55:24.989Z,97.85
2019-05-20T07:56:24.959Z,97.18
2019-05-20T07:57:24.990Z,97.28
2019-05-20T07:58:24.951Z,97.38
2019-05-20T07:59:24.937Z,96.42
2019-05-20T08:00:24.942Z,97.28
2019-05-20T08:01:24.958Z,96.99
2019-05-20T08:02:24.946Z,97.47
2019-05-20T08:03:24.923Z,97.28
2019-05-20T08:04:24.920Z,97.18
2019-05-20T08:05:24.910Z,97.75
2019-05-20T08:06:25.005Z,97.28
2019-05-20T08:07:35.614Z,96.70
2019-05-20T08:08:25.879Z,97.18
2019-05-20T08:09:24.891Z,97.47
2019-05-20T08:10:24.882Z,98.62
2019-05-20T08:11:24.883Z,97.47
2019-05-20T08:12:24.877Z,97.56
2019-05-20T08:13:24.870Z,98.52
2019-05-20T08:14:24.868Z,98.33
2019-05-20T08:15:24.862Z,98.71
2019-05-20T08:16:24.863Z,99.19
2019-05-20T08:17:24.850Z,99.34
2019-05-20T08:18:24.848Z,98.71
2019-05-20T08:19:24.841Z,99.10
2019-05-20T08:20:24.838Z,99.48
2019-05-20T08:21:24.825Z,99.38
2019-05-20T08:22:24.824Z,98.96
2019-05-20T08:23:24.820Z,99.72
2019-05-20T08:24:24.813Z,99.10
2019-05-20T08:25:24.814Z,99.15
2019-05-20T08:26:24.809Z,99.24
2019-05-20T08:27:24.796Z,99.34
2019-05-20T08:28:24.784Z,99.82
2019-05-20T08:29:24.785Z,98.96
2019-05-20T08:30:24.786Z,99.24
2019-05-20T08:31:24.775Z,99.34
2019-05-20T08:32:24.856Z,99.99
2019-05-20T08:33:24.767Z,98.96
2019-05-20T08:34:24.762Z,99.63
2019-05-20T08:35:24.750Z,99.91
2019-05-20T08:36:24.749Z,99.82
2019-05-20T08:37:24.760Z,99.91
2019-05-20T08:38:24.738Z,99.63
2019-05-20T08:39:24.732Z,99.34
2019-05-20T08:40:24.732Z,99.82
2019-05-20T08:41:24.787Z,99.99
2019-05-20T08:42:24.714Z,99.99
2019-05-20T08:43:24.721Z,99.82
2019-05-20T08:44:24.722Z,99.91
2019-05-20T08:45:24.710Z,99.99
2019-05-20T08:46:24.707Z,99.72
2019-05-20T08:47:24.697Z,99.99
2019-05-20T08:48:24.693Z,99.99
2019-05-20T08:49:24.687Z,99.99
2019-05-20T08:50:24.681Z,99.87
2019-05-20T08:51:24.677Z,99.82
2019-05-20T08:52:24.670Z,99.99
2019-05-20T08:53:24.672Z,99.99
2019-05-20T08:54:24.679Z,99.96
2019-05-20T08:55:24.661Z,99.99
2019-05-20T08:56:24.663Z,99.99
2019-05-20T08:57:24.646Z,99.96
2019-05-20T08:58:24.646Z,99.99
2019-05-20T08:59:24.641Z,99.99
2019-05-20T09:00:25.117Z,99.99
2019-05-20T09:01:24.629Z,99.99
2019-05-20T09:02:24.650Z,99.99
2019-05-20T09:03:24.618Z,99.99
2019-05-20T09:04:24.624Z,99.99
2019-05-20T09:05:27.944Z,99.99
2019-05-20T09:06:24.603Z,99.99
2019-05-20T09:07:24.607Z,99.99
2019-05-20T09:08:24.597Z,99.99
2019-05-20T09:09:24.688Z,99.99
2019-05-20T09:10:24.595Z,99.99
2019-05-20T09:11:24.585Z,99.99
2019-05-20T09:12:24.676Z,99.99
2019-05-20T09:13:24.574Z,99.99
2019-05-20T09:14:24.571Z,99.99
2019-05-20T09:15:24.565Z,99.99
2019-05-20T09:16:24.557Z,99.99
2019-05-20T09:17:24.559Z,99.99
2019-05-20T09:18:24.558Z,99.99
2019-05-20T09:19:24.551Z,99.99
2019-05-20T09:20:24.886Z,99.99
2019-05-20T09:21:24.539Z,99.99
2019-05-20T09:22:24.538Z,99.99
2019-05-20T09:23:24.549Z,99.99
2019-05-20T09:24:24.527Z,99.99
2019-05-20T09:25:24.520Z,99.99
2019-05-20T09:26:24.522Z,99.99
2019-05-20T09:27:24.522Z,99.99
2019-05-20T09:28:24.567Z,99.99
2019-05-20T09:29:24.508Z,99.99
2019-05-20T09:30:24.503Z,99.99
2019-05-20T09:31:24.499Z,99.99
2019-05-20T09:32:24.501Z,99.99
2019-05-20T09:33:24.560Z,99.99
2019-05-20T09:34:24.483Z,99.99
2019-05-20T09:35:24.485Z,99.99
2019-05-20T09:36:26.041Z,99.99
2019-05-20T09:37:24.479Z,99.99
2019-05-20T09:38:24.483Z,99.99
2019-05-20T09:39:24.471Z,99.99
2019-05-20T09:40:24.518Z,99.99
2019-05-20T09:41:24.458Z,99.99
2019-05-20T09:42:24.548Z,99.99
2019-05-20T09:43:24.451Z,99.99
2019-05-20T09:44:24.443Z,99.99
2019-05-20T09:45:24.444Z,99.99
2019-05-20T09:46:24.437Z,99.99
2019-05-20T09:47:24.442Z,99.99
2019-05-20T09:48:25.384Z,99.99
2019-05-20T09:49:24.440Z,99.99
2019-05-20T09:50:24.420Z,99.99
2019-05-20T09:51:24.426Z,99.99
2019-05-20T09:52:24.424Z,99.99
2019-05-20T09:53:24.412Z,99.99
2019-05-20T09:54:24.411Z,99.99
2019-05-20T09:55:24.445Z,99.99
2019-05-20T09:56:24.402Z,99.99
2019-05-20T09:57:24.398Z,99.99
2019-05-20T09:58:24.391Z,99.99
2019-05-20T09:59:24.385Z,99.99
2019-05-20T10:00:24.381Z,99.99
2019-05-20T10:01:24.385Z,99.99
2019-05-20T10:02:34.032Z,99.99
2019-05-20T10:03:24.372Z,99.99
2019-05-20T10:04:24.371Z,99.99
2019-05-20T10:05:24.397Z,99.99
2019-05-20T10:06:24.372Z,99.99
2019-05-20T10:07:24.358Z,99.99
2019-05-20T10:08:37.549Z,99.99
2019-05-20T10:09:24.349Z,99.99
2019-05-20T10:10:24.347Z,99.99
2019-05-20T10:11:24.341Z,99.99
2019-05-20T10:12:42.768Z,99.99
2019-05-20T10:13:24.339Z,99.99
2019-05-20T10:14:24.327Z,99.99
2019-05-20T10:15:24.337Z,99.99
2019-05-20T10:16:24.323Z,99.99
2019-05-20T10:17:24.314Z,99.99
2019-05-20T10:18:36.535Z,99.99
2019-05-20T10:19:24.311Z,99.99
2019-05-20T10:20:24.308Z,99.99
2019-05-20T10:21:24.320Z,99.99
2019-05-20T10:22:24.303Z,99.99
2019-05-20T10:23:24.299Z,99.99
2019-05-20T10:24:24.294Z,99.99
2019-05-20T10:25:24.290Z,99.99
2019-05-20T10:26:24.288Z,99.99
2019-05-20T10:27:24.281Z,99.99
2019-05-20T10:28:24.296Z,99.99
2019-05-20T10:29:24.279Z,99.99
2019-05-20T10:30:24.309Z,99.99
2019-05-20T10:31:24.268Z,99.99
2019-05-20T10:32:24.270Z,99.99
2019-05-20T10:33:24.261Z,99.99
2019-05-20T10:34:24.252Z,99.99
2019-05-20T10:35:24.246Z,99.99
2019-05-20T10:36:24.253Z,99.99
2019-05-20T10:37:24.250Z,99.99
2019-05-20T10:38:24.244Z,99.99
2019-05-20T10:39:24.240Z,99.99
2019-05-20T10:40:24.235Z,99.99
2019-05-20T10:41:24.231Z,99.99
2019-05-20T10:42:24.401Z,99.99
2019-05-20T10:43:24.221Z,99.99
2019-05-20T10:44:24.219Z,99.99
2019-05-20T10:45:24.220Z,99.99
2019-05-20T10:46:24.214Z,99.99
2019-05-20T10:47:24.210Z,99.99
2019-05-20T10:48:24.209Z,99.99
2019-05-20T10:49:24.207Z,99.99
2019-05-20T10:50:24.214Z,99.99
2019-05-20T10:51:24.197Z,99.99
2019-05-20T10:52:24.203Z,99.99
2019-05-20T10:53:28.009Z,99.99
2019-05-20T10:54:24.186Z,99.99
2019-05-20T10:55:24.184Z,99.99
2019-05-20T10:56:24.179Z,99.99
2019-05-20T10:57:24.176Z,99.99
2019-05-20T10:58:24.175Z,99.99
2019-05-20T10:59:24.167Z,99.99
2019-05-20T11:00:24.168Z,99.99
2019-05-20T11:01:24.157Z,99.99
2019-05-20T11:02:24.155Z,99.99
2019-05-20T11:03:24.978Z,99.99
2019-05-20T11:04:24.152Z,99.99
2019-05-20T11:05:24.147Z,99.99
2019-05-20T11:06:24.140Z,99.99
2019-05-20T11:07:24.135Z,99.99
2019-05-20T11:08:24.140Z,99.99
2019-05-20T11:09:24.124Z,99.99
2019-05-20T11:10:24.123Z,99.99
2019-05-20T11:11:24.132Z,99.99
2019-05-20T11:12:24.121Z,99.99
2019-05-20T11:13:24.118Z,99.99
2019-05-20T11:14:24.109Z,99.99
2019-05-20T11:15:24.106Z,99.99
2019-05-20T11:16:24.101Z,99.99
2019-05-20T11:17:24.098Z,99.99
2019-05-20T11:18:24.092Z,99.99
2019-05-20T11:19:24.103Z,99.99
2019-05-20T11:20:24.092Z,99.99
2019-05-20T11:21:24.088Z,99.99
2019-05-20T11:22:24.092Z,99.99
2019-05-20T11:23:24.985Z,99.99
2019-05-20T11:24:24.074Z,99.99
2019-05-20T11:25:24.078Z,99.99
2019-05-20T11:26:24.069Z,99.99
2019-05-20T11:27:24.057Z,99.99
2019-05-20T11:28:24.057Z,99.99
2019-05-20T11:29:24.054Z,99.99
2019-05-20T11:30:24.050Z,99.99
2019-05-20T11:31:24.045Z,99.99
2019-05-20T11:32:24.040Z,99.99
2019-05-20T11:33:24.035Z,99.99
2019-05-20T11:34:24.032Z,99.99
2019-05-20T11:35:24.030Z,99.99
2019-05-20T11:36:24.025Z,99.99
2019-05-20T11:37:24.019Z,99.99
2019-05-20T11:38:24.020Z,99.99
2019-05-20T11:39:33.448Z,99.99
2019-05-20T11:40:24.023Z,99.99
2019-05-20T11:41:51.174Z,99.99
2019-05-20T11:42:24.005Z,99.99
2019-05-20T11:43:23.997Z,99.99
2019-05-20T11:44:24.500Z,99.99
2019-05-20T11:45:23.992Z,99.99
2019-05-20T11:46:23.986Z,99.99
2019-05-20T11:47:23.991Z,99.99
2019-05-20T11:48:23.984Z,99.99
2019-05-20T11:49:23.982Z,99.99
2019-05-20T11:50:23.973Z,99.99
2019-05-20T11:51:23.969Z,99.99
2019-05-20T11:52:23.961Z,99.99
2019-05-20T11:53:23.961Z,99.99
2019-05-20T11:54:23.970Z,99.99
2019-05-20T11:55:23.957Z,99.99
2019-05-20T11:56:23.951Z,99.99
2019-05-20T11:57:23.967Z,99.99
2019-05-20T11:58:23.940Z,99.99
2019-05-20T11:59:23.941Z,99.99
2019-05-20T12:00:23.951Z,99.99
2019-05-20T12:01:23.935Z,99.99
2019-05-20T12:02:23.933Z,99.99
2019-05-20T12:03:23.925Z,99.99
2019-05-20T12:04:23.917Z,99.99
2019-05-20T12:05:23.911Z,99.99
2019-05-20T12:06:23.907Z,99.99
2019-05-20T12:07:23.908Z,99.99
2019-05-20T12:08:23.906Z,99.99
2019-05-20T12:09:23.903Z,99.99
2019-05-20T12:10:23.898Z,99.99
2019-05-20T12:11:23.894Z,99.99
2019-05-20T12:12:23.894Z,99.99
2019-05-20T12:13:23.889Z,99.99
2019-05-20T12:14:23.882Z,99.99
2019-05-20T12:15:23.881Z,99.99
2019-05-20T12:16:23.875Z,99.99
2019-05-20T12:17:23.881Z,99.99
2019-05-20T12:18:23.866Z,99.99
2019-05-20T12:19:23.870Z,99.99
2019-05-20T12:20:23.856Z,99.99
2019-05-20T12:21:23.860Z,99.99
2019-05-20T12:22:23.855Z,99.99
2019-05-20T12:23:23.849Z,99.99
2019-05-20T12:24:23.856Z,99.99
2019-05-20T12:25:23.855Z,99.99
2019-05-20T12:26:23.837Z,99.99
2019-05-20T12:27:23.841Z,99.99
2019-05-20T12:28:23.830Z,99.99
2019-05-20T12:29:23.830Z,99.99
2019-05-20T12:30:23.840Z,99.99
2019-05-20T12:31:23.824Z,99.99
2019-05-20T12:32:23.815Z,99.99
2019-05-20T12:33:23.811Z,99.99
2019-05-20T12:34:24.531Z,99.99
2019-05-20T12:35:23.801Z,99.99
2019-05-20T12:36:23.803Z,99.99
2019-05-20T12:37:23.798Z,99.99
2019-05-20T12:38:23.801Z,99.99
2019-05-20T12:39:23.865Z,99.99
2019-05-20T12:40:23.789Z,99.99
2019-05-20T12:41:23.831Z,99.99
2019-05-20T12:42:23.780Z,99.99
2019-05-20T12:43:23.782Z,99.99
2019-05-20T12:44:23.771Z,99.99
2019-05-20T12:45:23.773Z,99.99
2019-05-20T12:46:23.770Z,99.99
2019-05-20T12:47:23.766Z,99.99
2019-05-20T12:48:23.762Z,99.99
2019-05-20T12:49:23.811Z,99.99
2019-05-20T12:50:23.755Z,99.99
2019-05-20T12:51:23.748Z,99.99
2019-05-20T12:52:23.749Z,99.99